Terminal Aerodrome Forecast
Issued by NWS

Current Version | Previous Version | Graphics & Text | Print | Product List | Glossary On
Versions: 1 2 3 4 5 6 7 8 9 10 11 12 13 14 15 16 17 18 19 20 21 22
233
FTUS41 KILN 111743
TAFLUK
TAF
KLUK 111743Z 1118/1218 21010KT P6SM BKN200
     FM120300 24010KT P6SM BKN200
     FM120700 28012G21KT P6SM VCSH BKN100
     FM120900 30015G28KT P6SM VCSH OVC022=

USA.gov is the U.S. government's official web portal to all federal, state and local government web resources and services.